sensor_id;sensor_type;location;lat;lon;timestamp;temperature;humidity
7411;DHT22;3747;48.628;9.058;2023-04-16T00:01:11;5.80;99.90
7411;DHT22;3747;48.628;9.058;2023-04-16T00:03:37;5.80;99.90
7411;DHT22;3747;48.628;9.058;2023-04-16T00:06:05;5.80;99.90
7411;DHT22;3747;48.628;9.058;2023-04-16T00:08:32;5.70;99.90
7411;DHT22;3747;48.628;9.058;2023-04-16T00:11:00;5.80;99.90
7411;DHT22;3747;48.628;9.058;2023-04-16T00:13:26;5.80;99.90
7411;DHT22;3747;48.628;9.058;2023-04-16T00:15:53;5.80;99.90
7411;DHT22;3747;48.628;9.058;2023-04-16T00:18:20;5.80;99.90
7411;DHT22;3747;48.628;9.058;2023-04-16T00:20:47;5.80;99.90
7411;DHT22;3747;48.628;9.058;2023-04-16T00:23:15;5.80;99.90
7411;DHT22;3747;48.628;9.058;2023-04-16T00:25:42;5.80;99.90
7411;DHT22;3747;48.628;9.058;2023-04-16T00:28:08;5.80;99.90
7411;DHT22;3747;48.628;9.058;2023-04-16T00:30:35;5.80;99.90
7411;DHT22;3747;48.628;9.058;2023-04-16T00:33:02;5.80;99.90
7411;DHT22;3747;48.628;9.058;2023-04-16T00:35:29;5.80;99.90
7411;DHT22;3747;48.628;9.058;2023-04-16T00:37:56;5.80;99.90
7411;DHT22;3747;48.628;9.058;2023-04-16T00:40:26;5.80;99.90
7411;DHT22;3747;48.628;9.058;2023-04-16T00:42:52;5.80;99.90
7411;DHT22;3747;48.628;9.058;2023-04-16T00:45:19;5.80;99.90
7411;DHT22;3747;48.628;9.058;2023-04-16T00:47:46;5.80;99.90
7411;DHT22;3747;48.628;9.058;2023-04-16T00:50:13;5.80;99.90
7411;DHT22;3747;48.628;9.058;2023-04-16T00:52:40;5.80;99.90
7411;DHT22;3747;48.628;9.058;2023-04-16T00:55:07;5.80;99.90
7411;DHT22;3747;48.628;9.058;2023-04-16T00:57:39;5.80;99.90
7411;DHT22;3747;48.628;9.058;2023-04-16T01:00:06;5.80;99.90
7411;DHT22;3747;48.628;9.058;2023-04-16T01:02:34;5.80;99.90
7411;DHT22;3747;48.628;9.058;2023-04-16T01:05:01;5.80;99.90
7411;DHT22;3747;48.628;9.058;2023-04-16T01:07:27;5.80;99.90
7411;DHT22;3747;48.628;9.058;2023-04-16T01:09:54;5.80;99.90
7411;DHT22;3747;48.628;9.058;2023-04-16T01:12:21;5.80;99.90
7411;DHT22;3747;48.628;9.058;2023-04-16T01:14:49;5.80;99.90
7411;DHT22;3747;48.628;9.058;2023-04-16T01:17:16;5.80;99.90
7411;DHT22;3747;48.628;9.058;2023-04-16T01:19:42;5.80;99.90
7411;DHT22;3747;48.628;9.058;2023-04-16T01:22:10;5.80;99.90
7411;DHT22;3747;48.628;9.058;2023-04-16T01:24:37;5.90;99.90
7411;DHT22;3747;48.628;9.058;2023-04-16T01:27:04;5.80;99.90
7411;DHT22;3747;48.628;9.058;2023-04-16T01:29:31;5.80;99.90
7411;DHT22;3747;48.628;9.058;2023-04-16T01:31:58;5.80;99.90
7411;DHT22;3747;48.628;9.058;2023-04-16T01:34:24;5.90;99.90
7411;DHT22;3747;48.628;9.058;2023-04-16T01:36:51;5.90;99.90
7411;DHT22;3747;48.628;9.058;2023-04-16T01:39:19;5.90;99.90
7411;DHT22;3747;48.628;9.058;2023-04-16T01:41:46;5.90;99.90
7411;DHT22;3747;48.628;9.058;2023-04-16T01:44:12;5.80;99.90
7411;DHT22;3747;48.628;9.058;2023-04-16T01:46:39;5.80;99.90
7411;DHT22;3747;48.628;9.058;2023-04-16T01:49:06;5.80;99.90
7411;DHT22;3747;48.628;9.058;2023-04-16T01:51:32;5.80;99.90
7411;DHT22;3747;48.628;9.058;2023-04-16T01:54:00;5.80;99.90
7411;DHT22;3747;48.628;9.058;2023-04-16T01:56:28;5.80;99.90
7411;DHT22;3747;48.628;9.058;2023-04-16T01:58:54;5.80;99.90
7411;DHT22;3747;48.628;9.058;2023-04-16T02:01:21;5.80;99.90
7411;DHT22;3747;48.628;9.058;2023-04-16T02:03:50;5.80;99.90
7411;DHT22;3747;48.628;9.058;2023-04-16T02:06:17;5.80;99.90
7411;DHT22;3747;48.628;9.058;2023-04-16T02:08:44;5.80;99.90
7411;DHT22;3747;48.628;9.058;2023-04-16T02:11:11;5.80;99.90
7411;DHT22;3747;48.628;9.058;2023-04-16T02:13:39;5.80;99.90
7411;DHT22;3747;48.628;9.058;2023-04-16T02:16:06;5.80;99.90
7411;DHT22;3747;48.628;9.058;2023-04-16T02:18:33;5.80;99.90
7411;DHT22;3747;48.628;9.058;2023-04-16T02:20:59;5.80;99.90
7411;DHT22;3747;48.628;9.058;2023-04-16T02:23:26;5.90;99.90
7411;DHT22;3747;48.628;9.058;2023-04-16T02:25:53;5.90;99.90
7411;DHT22;3747;48.628;9.058;2023-04-16T02:28:20;5.90;99.90
7411;DHT22;3747;48.628;9.058;2023-04-16T02:30:48;5.80;99.90
7411;DHT22;3747;48.628;9.058;2023-04-16T02:33:15;5.80;99.90
7411;DHT22;3747;48.628;9.058;2023-04-16T02:35:41;5.80;99.90
7411;DHT22;3747;48.628;9.058;2023-04-16T02:38:08;5.90;99.90
7411;DHT22;3747;48.628;9.058;2023-04-16T02:40:35;5.80;99.90
7411;DHT22;3747;48.628;9.058;2023-04-16T02:43:02;5.80;99.90
7411;DHT22;3747;48.628;9.058;2023-04-16T02:45:28;5.80;99.90
7411;DHT22;3747;48.628;9.058;2023-04-16T02:47:57;5.80;99.90
7411;DHT22;3747;48.628;9.058;2023-04-16T02:50:24;5.80;99.90
7411;DHT22;3747;48.628;9.058;2023-04-16T02:52:50;5.80;99.90
7411;DHT22;3747;48.628;9.058;2023-04-16T02:55:17;5.80;99.90
7411;DHT22;3747;48.628;9.058;2023-04-16T02:57:44;5.80;99.90
7411;DHT22;3747;48.628;9.058;2023-04-16T03:00:11;5.90;99.90
7411;DHT22;3747;48.628;9.058;2023-04-16T03:02:38;5.90;99.90
7411;DHT22;3747;48.628;9.058;2023-04-16T03:05:07;5.80;99.90
7411;DHT22;3747;48.628;9.058;2023-04-16T03:07:34;5.80;99.90
7411;DHT22;3747;48.628;9.058;2023-04-16T03:10:00;5.80;99.90
7411;DHT22;3747;48.628;9.058;2023-04-16T03:12:27;5.80;99.90
7411;DHT22;3747;48.628;9.058;2023-04-16T03:14:54;5.80;99.90
7411;DHT22;3747;48.628;9.058;2023-04-16T03:17:21;5.80;99.90
7411;DHT22;3747;48.628;9.058;2023-04-16T03:19:47;5.80;99.90
7411;DHT22;3747;48.628;9.058;2023-04-16T03:22:16;5.80;99.90
7411;DHT22;3747;48.628;9.058;2023-04-16T03:24:43;5.80;99.90
7411;DHT22;3747;48.628;9.058;2023-04-16T03:27:10;5.80;99.90
7411;DHT22;3747;48.628;9.058;2023-04-16T03:29:36;5.80;99.90
7411;DHT22;3747;48.628;9.058;2023-04-16T03:32:03;5.80;99.90
7411;DHT22;3747;48.628;9.058;2023-04-16T03:34:30;5.80;99.90
7411;DHT22;3747;48.628;9.058;2023-04-16T03:36:57;5.80;99.90
7411;DHT22;3747;48.628;9.058;2023-04-16T03:39:25;5.80;99.90
7411;DHT22;3747;48.628;9.058;2023-04-16T03:41:51;5.80;99.90
7411;DHT22;3747;48.628;9.058;2023-04-16T03:44:18;5.80;99.90
7411;DHT22;3747;48.628;9.058;2023-04-16T03:46:45;5.80;99.90
7411;DHT22;3747;48.628;9.058;2023-04-16T03:49:11;5.80;99.90
7411;DHT22;3747;48.628;9.058;2023-04-16T03:51:38;5.80;99.90
7411;DHT22;3747;48.628;9.058;2023-04-16T03:54:05;5.70;99.90
7411;DHT22;3747;48.628;9.058;2023-04-16T03:56:33;5.70;99.90
7411;DHT22;3747;48.628;9.058;2023-04-16T03:58:59;5.70;99.90
7411;DHT22;3747;48.628;9.058;2023-04-16T04:01:26;5.70;99.90
7411;DHT22;3747;48.628;9.058;2023-04-16T04:03:53;5.70;99.90
7411;DHT22;3747;48.628;9.058;2023-04-16T04:06:19;5.70;99.90
7411;DHT22;3747;48.628;9.058;2023-04-16T04:08:46;5.80;99.90
7411;DHT22;3747;48.628;9.058;2023-04-16T04:11:13;5.80;99.90
7411;DHT22;3747;48.628;9.058;2023-04-16T04:13:41;5.70;99.90
7411;DHT22;3747;48.628;9.058;2023-04-16T04:16:08;5.70;99.90
7411;DHT22;3747;48.628;9.058;2023-04-16T04:18:34;5.70;99.90
7411;DHT22;3747;48.628;9.058;2023-04-16T04:21:04;5.70;99.90
7411;DHT22;3747;48.628;9.058;2023-04-16T04:23:31;5.70;99.90
7411;DHT22;3747;48.628;9.058;2023-04-16T04:25:57;5.70;99.90
7411;DHT22;3747;48.628;9.058;2023-04-16T04:28:28;5.70;99.90
7411;DHT22;3747;48.628;9.058;2023-04-16T04:30:56;5.70;99.90
7411;DHT22;3747;48.628;9.058;2023-04-16T04:33:22;5.70;99.90
7411;DHT22;3747;48.628;9.058;2023-04-16T04:35:49;5.70;99.90
7411;DHT22;3747;48.628;9.058;2023-04-16T04:38:16;5.70;99.90
7411;DHT22;3747;48.628;9.058;2023-04-16T04:40:44;5.70;99.90
7411;DHT22;3747;48.628;9.058;2023-04-16T04:43:10;5.70;99.90
7411;DHT22;3747;48.628;9.058;2023-04-16T04:45:37;5.70;99.90
7411;DHT22;3747;48.628;9.058;2023-04-16T04:48:05;5.70;99.90
7411;DHT22;3747;48.628;9.058;2023-04-16T04:50:32;5.70;99.90
7411;DHT22;3747;48.628;9.058;2023-04-16T04:52:59;5.70;99.90
7411;DHT22;3747;48.628;9.058;2023-04-16T04:55:25;5.70;99.90
7411;DHT22;3747;48.628;9.058;2023-04-16T04:57:52;5.70;99.90
7411;DHT22;3747;48.628;9.058;2023-04-16T05:00:19;5.70;99.90
7411;DHT22;3747;48.628;9.058;2023-04-16T05:02:46;5.70;99.90
7411;DHT22;3747;48.628;9.058;2023-04-16T05:05:14;5.70;99.90
7411;DHT22;3747;48.628;9.058;2023-04-16T05:07:40;5.70;99.90
7411;DHT22;3747;48.628;9.058;2023-04-16T05:10:08;5.70;99.90
7411;DHT22;3747;48.628;9.058;2023-04-16T05:12:34;5.70;99.90
7411;DHT22;3747;48.628;9.058;2023-04-16T05:15:01;5.70;99.90
7411;DHT22;3747;48.628;9.058;2023-04-16T05:17:28;5.70;99.90
7411;DHT22;3747;48.628;9.058;2023-04-16T05:19:54;5.70;99.90
7411;DHT22;3747;48.628;9.058;2023-04-16T05:22:23;5.70;99.90
7411;DHT22;3747;48.628;9.058;2023-04-16T05:24:49;5.70;99.90
7411;DHT22;3747;48.628;9.058;2023-04-16T05:27:16;5.70;99.90
7411;DHT22;3747;48.628;9.058;2023-04-16T05:29:42;5.70;99.90
7411;DHT22;3747;48.628;9.058;2023-04-16T05:32:09;5.70;99.90
7411;DHT22;3747;48.628;9.058;2023-04-16T05:34:36;5.70;99.90
7411;DHT22;3747;48.628;9.058;2023-04-16T05:37:02;5.70;99.90
7411;DHT22;3747;48.628;9.058;2023-04-16T05:39:30;5.80;99.90
7411;DHT22;3747;48.628;9.058;2023-04-16T05:41:57;5.70;99.90
7411;DHT22;3747;48.628;9.058;2023-04-16T05:44:24;5.70;99.90
7411;DHT22;3747;48.628;9.058;2023-04-16T05:46:51;5.70;99.90
7411;DHT22;3747;48.628;9.058;2023-04-16T05:49:18;5.70;99.90
7411;DHT22;3747;48.628;9.058;2023-04-16T05:51:45;5.70;99.90
7411;DHT22;3747;48.628;9.058;2023-04-16T05:54:12;5.70;99.90
7411;DHT22;3747;48.628;9.058;2023-04-16T05:56:40;5.70;99.90
7411;DHT22;3747;48.628;9.058;2023-04-16T05:59:07;5.70;99.90
7411;DHT22;3747;48.628;9.058;2023-04-16T06:01:33;5.70;99.90
7411;DHT22;3747;48.628;9.058;2023-04-16T06:04:00;5.70;99.90
7411;DHT22;3747;48.628;9.058;2023-04-16T06:06:27;5.70;99.90
7411;DHT22;3747;48.628;9.058;2023-04-16T06:08:53;5.70;99.90
7411;DHT22;3747;48.628;9.058;2023-04-16T06:11:20;5.70;99.90
7411;DHT22;3747;48.628;9.058;2023-04-16T06:13:48;5.70;99.90
7411;DHT22;3747;48.628;9.058;2023-04-16T06:16:15;5.70;99.90
7411;DHT22;3747;48.628;9.058;2023-04-16T06:18:42;5.60;99.90
7411;DHT22;3747;48.628;9.058;2023-04-16T06:21:09;5.60;99.90
7411;DHT22;3747;48.628;9.058;2023-04-16T06:23:35;5.60;99.90
7411;DHT22;3747;48.628;9.058;2023-04-16T06:26:04;5.60;99.90
7411;DHT22;3747;48.628;9.058;2023-04-16T06:28:31;5.60;99.90
7411;DHT22;3747;48.628;9.058;2023-04-16T06:30:59;5.60;99.90
7411;DHT22;3747;48.628;9.058;2023-04-16T06:33:26;5.60;99.90
7411;DHT22;3747;48.628;9.058;2023-04-16T06:35:53;5.70;99.90
7411;DHT22;3747;48.628;9.058;2023-04-16T06:38:20;5.70;99.90
7411;DHT22;3747;48.628;9.058;2023-04-16T06:40:47;5.70;99.90
7411;DHT22;3747;48.628;9.058;2023-04-16T06:43:14;5.70;99.90
7411;DHT22;3747;48.628;9.058;2023-04-16T06:45:42;5.70;99.90
7411;DHT22;3747;48.628;9.058;2023-04-16T06:48:10;5.60;99.90
7411;DHT22;3747;48.628;9.058;2023-04-16T06:50:36;5.70;99.90
7411;DHT22;3747;48.628;9.058;2023-04-16T06:53:03;5.70;99.90
7411;DHT22;3747;48.628;9.058;2023-04-16T06:55:30;5.60;99.90
7411;DHT22;3747;48.628;9.058;2023-04-16T06:57:57;5.60;99.90
7411;DHT22;3747;48.628;9.058;2023-04-16T07:00:23;5.70;99.90
7411;DHT22;3747;48.628;9.058;2023-04-16T07:02:50;5.70;99.90
7411;DHT22;3747;48.628;9.058;2023-04-16T07:05:18;5.60;99.90
7411;DHT22;3747;48.628;9.058;2023-04-16T07:07:45;5.70;99.90
7411;DHT22;3747;48.628;9.058;2023-04-16T07:10:12;5.70;99.90
7411;DHT22;3747;48.628;9.058;2023-04-16T07:12:38;5.70;99.90
7411;DHT22;3747;48.628;9.058;2023-04-16T07:15:06;5.70;99.90
7411;DHT22;3747;48.628;9.058;2023-04-16T07:17:33;5.70;99.90
7411;DHT22;3747;48.628;9.058;2023-04-16T07:20:00;5.70;99.90
7411;DHT22;3747;48.628;9.058;2023-04-16T07:22:28;5.70;99.90
7411;DHT22;3747;48.628;9.058;2023-04-16T07:24:55;5.70;99.90
7411;DHT22;3747;48.628;9.058;2023-04-16T07:27:21;5.70;99.90
7411;DHT22;3747;48.628;9.058;2023-04-16T07:29:48;5.70;99.90
7411;DHT22;3747;48.628;9.058;2023-04-16T07:32:15;5.70;99.90
7411;DHT22;3747;48.628;9.058;2023-04-16T07:34:42;5.70;99.90
7411;DHT22;3747;48.628;9.058;2023-04-16T07:37:09;5.80;99.90
7411;DHT22;3747;48.628;9.058;2023-04-16T07:39:37;5.70;99.90
7411;DHT22;3747;48.628;9.058;2023-04-16T07:42:04;5.80;99.90
7411;DHT22;3747;48.628;9.058;2023-04-16T07:44:31;5.80;99.90
7411;DHT22;3747;48.628;9.058;2023-04-16T07:46:58;5.80;99.90
7411;DHT22;3747;48.628;9.058;2023-04-16T07:49:25;5.90;99.90
7411;DHT22;3747;48.628;9.058;2023-04-16T07:51:51;5.90;99.90
7411;DHT22;3747;48.628;9.058;2023-04-16T07:54:18;5.80;99.90
7411;DHT22;3747;48.628;9.058;2023-04-16T07:56:46;5.80;99.90
7411;DHT22;3747;48.628;9.058;2023-04-16T07:59:13;5.80;99.90
7411;DHT22;3747;48.628;9.058;2023-04-16T08:01:40;5.80;99.90
7411;DHT22;3747;48.628;9.058;2023-04-16T08:04:06;5.80;99.90
7411;DHT22;3747;48.628;9.058;2023-04-16T08:06:33;5.90;99.90
7411;DHT22;3747;48.628;9.058;2023-04-16T08:09:00;5.80;99.90
7411;DHT22;3747;48.628;9.058;2023-04-16T08:11:27;5.80;99.90
7411;DHT22;3747;48.628;9.058;2023-04-16T08:13:55;5.90;99.90
7411;DHT22;3747;48.628;9.058;2023-04-16T08:16:22;5.90;99.90
7411;DHT22;3747;48.628;9.058;2023-04-16T08:18:48;5.90;99.90
7411;DHT22;3747;48.628;9.058;2023-04-16T08:21:15;5.90;99.90
7411;DHT22;3747;48.628;9.058;2023-04-16T08:23:42;5.90;99.90
7411;DHT22;3747;48.628;9.058;2023-04-16T08:26:08;5.90;99.90
7411;DHT22;3747;48.628;9.058;2023-04-16T08:28:35;5.80;99.90
7411;DHT22;3747;48.628;9.058;2023-04-16T08:31:04;5.80;99.90
7411;DHT22;3747;48.628;9.058;2023-04-16T08:33:30;5.90;99.90
7411;DHT22;3747;48.628;9.058;2023-04-16T08:35:57;5.90;99.90
7411;DHT22;3747;48.628;9.058;2023-04-16T08:38:24;5.90;99.90
7411;DHT22;3747;48.628;9.058;2023-04-16T08:40:50;6.00;99.90
7411;DHT22;3747;48.628;9.058;2023-04-16T08:43:21;6.00;99.90
7411;DHT22;3747;48.628;9.058;2023-04-16T08:45:50;6.00;99.90
7411;DHT22;3747;48.628;9.058;2023-04-16T08:48:22;6.20;99.90
7411;DHT22;3747;48.628;9.058;2023-04-16T08:50:51;6.20;99.90
7411;DHT22;3747;48.628;9.058;2023-04-16T08:53:21;6.10;99.90
7411;DHT22;3747;48.628;9.058;2023-04-16T08:55:51;6.10;99.90
7411;DHT22;3747;48.628;9.058;2023-04-16T08:58:19;6.10;99.90
7411;DHT22;3747;48.628;9.058;2023-04-16T09:00:47;6.20;99.90
7411;DHT22;3747;48.628;9.058;2023-04-16T09:03:14;6.10;99.90
7411;DHT22;3747;48.628;9.058;2023-04-16T09:05:43;6.10;99.90
7411;DHT22;3747;48.628;9.058;2023-04-16T09:08:09;6.10;99.90
7411;DHT22;3747;48.628;9.058;2023-04-16T09:10:36;6.10;99.90
7411;DHT22;3747;48.628;9.058;2023-04-16T09:13:03;6.10;99.90
7411;DHT22;3747;48.628;9.058;2023-04-16T09:15:38;6.20;99.90
7411;DHT22;3747;48.628;9.058;2023-04-16T09:18:09;6.30;99.90
7411;DHT22;3747;48.628;9.058;2023-04-16T09:20:56;6.50;99.90
7411;DHT22;3747;48.628;9.058;2023-04-16T09:23:23;6.50;99.90
7411;DHT22;3747;48.628;9.058;2023-04-16T09:25:52;6.60;99.90
7411;DHT22;3747;48.628;9.058;2023-04-16T09:28:46;6.70;99.90
7411;DHT22;3747;48.628;9.058;2023-04-16T09:31:16;6.80;99.90
7411;DHT22;3747;48.628;9.058;2023-04-16T09:33:45;6.90;99.90
7411;DHT22;3747;48.628;9.058;2023-04-16T09:36:27;6.80;99.90
7411;DHT22;3747;48.628;9.058;2023-04-16T09:38:54;6.80;99.90
7411;DHT22;3747;48.628;9.058;2023-04-16T09:41:24;6.70;99.90
7411;DHT22;3747;48.628;9.058;2023-04-16T09:43:55;6.70;99.90
7411;DHT22;3747;48.628;9.058;2023-04-16T09:46:28;6.90;99.90
7411;DHT22;3747;48.628;9.058;2023-04-16T09:48:55;6.90;99.90
7411;DHT22;3747;48.628;9.058;2023-04-16T09:51:22;6.80;99.90
7411;DHT22;3747;48.628;9.058;2023-04-16T09:53:52;6.60;99.90
7411;DHT22;3747;48.628;9.058;2023-04-16T09:56:23;6.60;99.90
7411;DHT22;3747;48.628;9.058;2023-04-16T09:58:54;6.80;99.90
7411;DHT22;3747;48.628;9.058;2023-04-16T10:01:21;6.90;99.90
7411;DHT22;3747;48.628;9.058;2023-04-16T10:03:53;6.80;99.90
7411;DHT22;3747;48.628;9.058;2023-04-16T10:06:21;6.70;99.90
7411;DHT22;3747;48.628;9.058;2023-04-16T10:08:52;6.60;99.90
7411;DHT22;3747;48.628;9.058;2023-04-16T10:11:21;6.60;99.90
7411;DHT22;3747;48.628;9.058;2023-04-16T10:13:48;6.50;99.90
7411;DHT22;3747;48.628;9.058;2023-04-16T10:16:16;6.50;99.90
7411;DHT22;3747;48.628;9.058;2023-04-16T10:18:44;6.50;99.90
7411;DHT22;3747;48.628;9.058;2023-04-16T10:21:11;6.50;99.90
7411;DHT22;3747;48.628;9.058;2023-04-16T10:23:40;6.50;99.90
7411;DHT22;3747;48.628;9.058;2023-04-16T10:26:08;6.50;99.90
7411;DHT22;3747;48.628;9.058;2023-04-16T10:28:36;6.50;99.90
7411;DHT22;3747;48.628;9.058;2023-04-16T10:31:04;6.40;99.90
7411;DHT22;3747;48.628;9.058;2023-04-16T10:33:33;6.50;99.90
7411;DHT22;3747;48.628;9.058;2023-04-16T10:36:08;6.50;99.90
7411;DHT22;3747;48.628;9.058;2023-04-16T10:38:37;6.50;99.90
7411;DHT22;3747;48.628;9.058;2023-04-16T10:41:05;6.50;99.90
7411;DHT22;3747;48.628;9.058;2023-04-16T10:43:39;6.50;99.90
7411;DHT22;3747;48.628;9.058;2023-04-16T10:46:20;6.50;99.90
7411;DHT22;3747;48.628;9.058;2023-04-16T10:48:48;6.50;99.90
7411;DHT22;3747;48.628;9.058;2023-04-16T10:51:26;6.60;99.90
7411;DHT22;3747;48.628;9.058;2023-04-16T10:53:54;6.70;99.90
7411;DHT22;3747;48.628;9.058;2023-04-16T10:56:22;6.70;99.90
7411;DHT22;3747;48.628;9.058;2023-04-16T10:58:52;6.70;99.90
7411;DHT22;3747;48.628;9.058;2023-04-16T11:01:28;6.70;99.90
7411;DHT22;3747;48.628;9.058;2023-04-16T11:03:57;6.70;99.90
7411;DHT22;3747;48.628;9.058;2023-04-16T11:06:36;6.70;99.90
7411;DHT22;3747;48.628;9.058;2023-04-16T11:09:03;6.70;99.90
7411;DHT22;3747;48.628;9.058;2023-04-16T11:11:37;6.70;99.90
7411;DHT22;3747;48.628;9.058;2023-04-16T11:14:05;6.70;99.90
7411;DHT22;3747;48.628;9.058;2023-04-16T11:16:34;6.70;99.90
7411;DHT22;3747;48.628;9.058;2023-04-16T11:19:01;6.70;99.90
7411;DHT22;3747;48.628;9.058;2023-04-16T11:21:28;6.70;99.90
7411;DHT22;3747;48.628;9.058;2023-04-16T11:23:56;6.80;99.90
7411;DHT22;3747;48.628;9.058;2023-04-16T11:26:25;6.80;99.90
7411;DHT22;3747;48.628;9.058;2023-04-16T11:28:53;6.80;99.90
7411;DHT22;3747;48.628;9.058;2023-04-16T11:31:21;6.80;99.90
7411;DHT22;3747;48.628;9.058;2023-04-16T11:33:48;6.80;99.90
7411;DHT22;3747;48.628;9.058;2023-04-16T11:36:15;6.80;99.90
7411;DHT22;3747;48.628;9.058;2023-04-16T11:38:42;6.80;99.90
7411;DHT22;3747;48.628;9.058;2023-04-16T11:41:08;6.90;99.90
7411;DHT22;3747;48.628;9.058;2023-04-16T11:43:36;7.00;99.90
7411;DHT22;3747;48.628;9.058;2023-04-16T11:46:04;7.10;99.90
7411;DHT22;3747;48.628;9.058;2023-04-16T11:48:50;7.10;99.90
7411;DHT22;3747;48.628;9.058;2023-04-16T11:51:17;7.20;99.90
7411;DHT22;3747;48.628;9.058;2023-04-16T11:53:48;7.30;99.90
7411;DHT22;3747;48.628;9.058;2023-04-16T11:56:15;7.30;99.90
7411;DHT22;3747;48.628;9.058;2023-04-16T11:58:42;7.40;99.90
7411;DHT22;3747;48.628;9.058;2023-04-16T12:01:09;7.40;99.90
7411;DHT22;3747;48.628;9.058;2023-04-16T12:03:37;7.40;99.90
7411;DHT22;3747;48.628;9.058;2023-04-16T12:06:08;7.40;99.90
7411;DHT22;3747;48.628;9.058;2023-04-16T12:08:35;7.40;99.90
7411;DHT22;3747;48.628;9.058;2023-04-16T12:11:01;7.30;99.90
7411;DHT22;3747;48.628;9.058;2023-04-16T12:13:28;7.30;99.90
7411;DHT22;3747;48.628;9.058;2023-04-16T12:15:56;7.40;99.90
7411;DHT22;3747;48.628;9.058;2023-04-16T12:18:23;7.50;99.90
7411;DHT22;3747;48.628;9.058;2023-04-16T12:20:52;7.60;99.90
7411;DHT22;3747;48.628;9.058;2023-04-16T12:23:24;7.60;99.90
7411;DHT22;3747;48.628;9.058;2023-04-16T12:25:51;7.70;99.90
7411;DHT22;3747;48.628;9.058;2023-04-16T12:28:29;7.70;99.90
7411;DHT22;3747;48.628;9.058;2023-04-16T12:30:56;7.60;99.90
7411;DHT22;3747;48.628;9.058;2023-04-16T12:33:23;7.70;99.90
7411;DHT22;3747;48.628;9.058;2023-04-16T12:35:49;7.70;99.90
7411;DHT22;3747;48.628;9.058;2023-04-16T12:38:17;7.60;99.90
7411;DHT22;3747;48.628;9.058;2023-04-16T12:40:45;7.40;99.90
7411;DHT22;3747;48.628;9.058;2023-04-16T12:43:12;7.30;99.90
7411;DHT22;3747;48.628;9.058;2023-04-16T12:45:41;7.20;99.90
7411;DHT22;3747;48.628;9.058;2023-04-16T12:48:08;7.20;99.90
7411;DHT22;3747;48.628;9.058;2023-04-16T12:50:36;7.20;99.90
7411;DHT22;3747;48.628;9.058;2023-04-16T12:53:04;7.20;99.90
7411;DHT22;3747;48.628;9.058;2023-04-16T12:55:36;7.10;99.90
7411;DHT22;3747;48.628;9.058;2023-04-16T12:58:04;7.00;99.90
7411;DHT22;3747;48.628;9.058;2023-04-16T13:00:31;7.00;99.90
7411;DHT22;3747;48.628;9.058;2023-04-16T13:02:58;7.10;99.90
7411;DHT22;3747;48.628;9.058;2023-04-16T13:05:25;7.30;99.90
7411;DHT22;3747;48.628;9.058;2023-04-16T13:07:52;7.40;99.90
7411;DHT22;3747;48.628;9.058;2023-04-16T13:10:20;7.40;99.90
7411;DHT22;3747;48.628;9.058;2023-04-16T13:12:47;7.40;99.90
7411;DHT22;3747;48.628;9.058;2023-04-16T13:15:16;7.50;99.90
7411;DHT22;3747;48.628;9.058;2023-04-16T13:17:42;7.60;99.90
7411;DHT22;3747;48.628;9.058;2023-04-16T13:20:09;7.60;99.90
7411;DHT22;3747;48.628;9.058;2023-04-16T13:22:36;7.70;99.90
7411;DHT22;3747;48.628;9.058;2023-04-16T13:25:03;7.70;99.90
7411;DHT22;3747;48.628;9.058;2023-04-16T13:27:30;7.60;99.90
7411;DHT22;3747;48.628;9.058;2023-04-16T13:29:57;7.50;99.90
7411;DHT22;3747;48.628;9.058;2023-04-16T13:32:25;7.50;99.90
7411;DHT22;3747;48.628;9.058;2023-04-16T13:34:52;7.50;99.90
7411;DHT22;3747;48.628;9.058;2023-04-16T13:37:19;7.40;99.90
7411;DHT22;3747;48.628;9.058;2023-04-16T13:39:45;7.50;99.90
7411;DHT22;3747;48.628;9.058;2023-04-16T13:42:12;7.40;99.90
7411;DHT22;3747;48.628;9.058;2023-04-16T13:44:44;7.40;99.90
7411;DHT22;3747;48.628;9.058;2023-04-16T13:47:13;7.50;99.90
7411;DHT22;3747;48.628;9.058;2023-04-16T13:49:41;7.40;99.90
7411;DHT22;3747;48.628;9.058;2023-04-16T13:52:08;7.60;99.90
7411;DHT22;3747;48.628;9.058;2023-04-16T13:54:35;7.50;99.90
7411;DHT22;3747;48.628;9.058;2023-04-16T13:57:02;7.50;99.90
7411;DHT22;3747;48.628;9.058;2023-04-16T13:59:29;7.50;99.90
7411;DHT22;3747;48.628;9.058;2023-04-16T14:01:56;7.50;99.90
7411;DHT22;3747;48.628;9.058;2023-04-16T14:04:23;7.40;99.90
7411;DHT22;3747;48.628;9.058;2023-04-16T14:06:51;7.30;99.90
7411;DHT22;3747;48.628;9.058;2023-04-16T14:09:18;7.30;99.90
7411;DHT22;3747;48.628;9.058;2023-04-16T14:11:44;7.20;99.90
7411;DHT22;3747;48.628;9.058;2023-04-16T14:14:11;7.20;99.90
7411;DHT22;3747;48.628;9.058;2023-04-16T14:16:38;7.30;99.90
7411;DHT22;3747;48.628;9.058;2023-04-16T14:19:04;7.30;99.90
7411;DHT22;3747;48.628;9.058;2023-04-16T14:21:31;7.30;99.90
7411;DHT22;3747;48.628;9.058;2023-04-16T14:23:59;7.40;99.90
7411;DHT22;3747;48.628;9.058;2023-04-16T14:26:26;7.40;99.90
7411;DHT22;3747;48.628;9.058;2023-04-16T14:28:53;7.30;99.90
7411;DHT22;3747;48.628;9.058;2023-04-16T14:31:19;7.30;99.90
7411;DHT22;3747;48.628;9.058;2023-04-16T14:33:46;7.20;99.90
7411;DHT22;3747;48.628;9.058;2023-04-16T14:36:13;7.30;99.90
7411;DHT22;3747;48.628;9.058;2023-04-16T14:38:40;7.30;99.90
7411;DHT22;3747;48.628;9.058;2023-04-16T14:41:09;7.30;99.90
7411;DHT22;3747;48.628;9.058;2023-04-16T14:43:36;7.30;99.90
7411;DHT22;3747;48.628;9.058;2023-04-16T14:46:04;7.20;99.90
7411;DHT22;3747;48.628;9.058;2023-04-16T14:48:31;7.10;99.90
7411;DHT22;3747;48.628;9.058;2023-04-16T14:51:05;7.10;99.90
7411;DHT22;3747;48.628;9.058;2023-04-16T14:53:32;7.10;99.90
7411;DHT22;3747;48.628;9.058;2023-04-16T14:56:00;7.10;99.90
7411;DHT22;3747;48.628;9.058;2023-04-16T14:58:28;7.10;99.90
7411;DHT22;3747;48.628;9.058;2023-04-16T15:00:56;7.10;99.90
7411;DHT22;3747;48.628;9.058;2023-04-16T15:03:23;7.10;99.90
7411;DHT22;3747;48.628;9.058;2023-04-16T15:05:51;7.00;99.90
7411;DHT22;3747;48.628;9.058;2023-04-16T15:08:20;7.10;99.90
7411;DHT22;3747;48.628;9.058;2023-04-16T15:10:46;7.10;99.90
7411;DHT22;3747;48.628;9.058;2023-04-16T15:13:13;7.00;99.90
7411;DHT22;3747;48.628;9.058;2023-04-16T15:15:42;7.00;99.90
7411;DHT22;3747;48.628;9.058;2023-04-16T15:18:08;6.90;99.90
7411;DHT22;3747;48.628;9.058;2023-04-16T15:20:35;7.00;99.90
7411;DHT22;3747;48.628;9.058;2023-04-16T15:23:02;7.00;99.90
7411;DHT22;3747;48.628;9.058;2023-04-16T15:25:29;7.00;99.90
7411;DHT22;3747;48.628;9.058;2023-04-16T15:27:55;7.00;99.90
7411;DHT22;3747;48.628;9.058;2023-04-16T15:30:22;7.00;99.90
7411;DHT22;3747;48.628;9.058;2023-04-16T15:32:50;6.90;99.90
7411;DHT22;3747;48.628;9.058;2023-04-16T15:35:19;7.00;99.90
7411;DHT22;3747;48.628;9.058;2023-04-16T15:37:46;7.00;99.90
7411;DHT22;3747;48.628;9.058;2023-04-16T15:40:13;7.00;99.90
7411;DHT22;3747;48.628;9.058;2023-04-16T15:42:42;6.90;99.90
7411;DHT22;3747;48.628;9.058;2023-04-16T15:45:09;6.90;99.90
7411;DHT22;3747;48.628;9.058;2023-04-16T15:47:36;6.90;99.90
7411;DHT22;3747;48.628;9.058;2023-04-16T15:50:07;6.90;99.90
7411;DHT22;3747;48.628;9.058;2023-04-16T15:52:34;6.90;99.90
7411;DHT22;3747;48.628;9.058;2023-04-16T15:55:03;6.90;99.90
7411;DHT22;3747;48.628;9.058;2023-04-16T15:57:30;6.90;99.90
7411;DHT22;3747;48.628;9.058;2023-04-16T15:59:56;7.00;99.90
7411;DHT22;3747;48.628;9.058;2023-04-16T16:02:23;6.90;99.90
7411;DHT22;3747;48.628;9.058;2023-04-16T16:04:50;6.90;99.90
7411;DHT22;3747;48.628;9.058;2023-04-16T16:07:18;7.00;99.90
7411;DHT22;3747;48.628;9.058;2023-04-16T16:09:45;7.00;99.90
7411;DHT22;3747;48.628;9.058;2023-04-16T16:12:12;7.00;99.90
7411;DHT22;3747;48.628;9.058;2023-04-16T16:14:39;7.10;99.90
7411;DHT22;3747;48.628;9.058;2023-04-16T16:17:19;7.00;99.90
7411;DHT22;3747;48.628;9.058;2023-04-16T16:19:46;7.00;99.90